Paris, France

21:12 CEST le 27 août 2014 (GMT +0200)
Charles de Gaulle | Change Station
CLOSE
Current Station
Aéroport
Location: Paris / Charles De Gaulle,
Altitude: 367 ft
Stations météo à proximité

Alt. 367 ft 49.02 °N, 2.53 °E | Updated 12 minutes ago

Mostly Cloudy
Nuageux
66 ° F
Paraît 66 ° F
N
6
Vent Variable Vent de Sud

Aujourd'hui
Haut(e) -- | Bas -- ° F
--% Risque de précip.
Hier
Haut(e) -- | Bas -- ° F
Precip. -- pouce
6:58 AM 8:42 PM
Lune montante, 4% visible
Pression 29.98 pouce
Visibilité 6.2 Miles terrestres
Nuages Peu 3000 ft
Nuages épars 18000 ft
Nuageux 20000 ft
Point de rosée 57 ° F
Humidité 73%
Précipitations 0.00 pouce
Profondeur de la couche neigeuse Non disponible.
UV 0 sur 12
Pollen Non disponible.
Qualité de l'air Non disponible.
Flu Activity Non disponible.
METAR LFPG 271900Z 18005KT 9999 FEW030 SCT180 BKN200 19/14 Q1015 NOSIG

More Conditions Fewer Conditions

Pression 29.98 pouce
Visibilité 6.2 Miles terrestres
Nuages Peu 3000 ft
Nuages épars 18000 ft
Nuageux 20000 ft
Point de rosée 57 ° F
Humidité 73%
Précipitations 0.00 pouce
Profondeur de la couche neigeuse Non disponible.
UV 0 sur 12
Pollen Non disponible.
Qualité de l'air Non disponible.
Flu Activity Non disponible.
METAR LFPG 271900Z 18005KT 9999 FEW030 SCT180 BKN200 19/14 Q1015 NOSIG

More Conditions Fewer Conditions

10-Day Weather Forecast

Almanac

Astronomie

Aug. 27, 2014 Lever Coucher
Temps réel 06:58 CEST 20:42 CEST
Crépuscule civil 06:25 CEST 21:16 CEST
Crépuscule nautique 05:44 CEST 21:57 CEST
Crépuscule astronomique 04:58 CEST 22:42 CEST
Lune 08:53 CEST 21:12 CEST
Durée de lumière visible 14h 50m
Longueur du jour
13h 43m
Tomorrow will be 3m 26s shorter.
Lune montante, 4% of the Moon is Illuminated
Aujourd'hui
Lune montante
Sep 2
Premier quartier
Sep 8
Pleine lune
Sep 15
Dernier quartier
Sep 24
Nouveau

Extrêmes aujourd'hui

Country Highs Country Lows

Community

WunderPhotos

Upload Photos

1,747,759 Photos téléchargées !

Nearby

Qualité de l'air

Not available.

Épaisseur de neige

Not available.

Activité sismique

Ville Distance Mag. Time & Date
No recent earthquake activity has been reported nearby.
Minimum magnitude displayed is 2.5.

Températures des eaux côtières

Lieu Température
Aucun rapport de station

Stations météo à proximité